sensor_id;sensor_type;location;lat;lon;timestamp;pressure;altitude;pressure_sealevel;temperature;humidity
76011;BME280;64701;43.536;1.478;2023-04-16T00:01:38;100288.59;;;10.22;65.26
76011;BME280;64701;43.536;1.478;2023-04-16T00:04:04;100289.09;;;10.17;65.53
76011;BME280;64701;43.536;1.478;2023-04-16T00:06:29;100280.63;;;10.14;65.99
76011;BME280;64701;43.536;1.478;2023-04-16T00:08:55;100281.50;;;10.06;66.52
76011;BME280;64701;43.536;1.478;2023-04-16T00:11:21;100280.50;;;9.99;66.52
76011;BME280;64701;43.536;1.478;2023-04-16T00:13:46;100278.19;;;10.04;66.34
76011;BME280;64701;43.536;1.478;2023-04-16T00:16:11;100279.16;;;10.03;66.56
76011;BME280;64701;43.536;1.478;2023-04-16T00:18:36;100272.41;;;10.01;66.76
76011;BME280;64701;43.536;1.478;2023-04-16T00:21:02;100274.41;;;9.99;66.88
76011;BME280;64701;43.536;1.478;2023-04-16T00:23:27;100272.06;;;9.96;67.09
76011;BME280;64701;43.536;1.478;2023-04-16T00:25:52;100277.06;;;9.91;67.12
76011;BME280;64701;43.536;1.478;2023-04-16T00:28:21;100273.56;;;9.90;67.24
76011;BME280;64701;43.536;1.478;2023-04-16T00:30:46;100279.38;;;9.86;67.36
76011;BME280;64701;43.536;1.478;2023-04-16T00:33:11;100273.94;;;9.79;67.51
76011;BME280;64701;43.536;1.478;2023-04-16T00:35:36;100263.38;;;9.71;68.29
76011;BME280;64701;43.536;1.478;2023-04-16T00:38:02;100268.00;;;9.69;68.39
76011;BME280;64701;43.536;1.478;2023-04-16T00:40:27;100271.63;;;9.68;68.28
76011;BME280;64701;43.536;1.478;2023-04-16T00:42:53;100269.34;;;9.65;68.17
76011;BME280;64701;43.536;1.478;2023-04-16T00:45:18;100262.09;;;9.59;68.78
76011;BME280;64701;43.536;1.478;2023-04-16T00:47:44;100261.91;;;9.52;69.21
76011;BME280;64701;43.536;1.478;2023-04-16T00:50:10;100261.41;;;9.49;69.02
76011;BME280;64701;43.536;1.478;2023-04-16T00:52:35;100263.06;;;9.50;69.03
76011;BME280;64701;43.536;1.478;2023-04-16T00:55:01;100266.38;;;9.43;69.77
76011;BME280;64701;43.536;1.478;2023-04-16T00:57:27;100251.84;;;9.39;69.65
76011;BME280;64701;43.536;1.478;2023-04-16T00:59:52;100260.75;;;9.38;69.62
76011;BME280;64701;43.536;1.478;2023-04-16T01:02:18;100246.91;;;9.28;70.59
76011;BME280;64701;43.536;1.478;2023-04-16T01:04:43;100255.28;;;9.24;70.70
76011;BME280;64701;43.536;1.478;2023-04-16T01:07:08;100256.31;;;9.23;71.06
76011;BME280;64701;43.536;1.478;2023-04-16T01:09:34;100255.50;;;9.22;71.03
76011;BME280;64701;43.536;1.478;2023-04-16T01:11:59;100253.31;;;9.18;71.38
76011;BME280;64701;43.536;1.478;2023-04-16T01:14:26;100241.59;;;9.20;70.88
76011;BME280;64701;43.536;1.478;2023-04-16T01:16:51;100247.53;;;9.14;71.45
76011;BME280;64701;43.536;1.478;2023-04-16T01:19:16;100250.34;;;9.13;71.72
76011;BME280;64701;43.536;1.478;2023-04-16T01:21:42;100253.31;;;9.10;71.82
76011;BME280;64701;43.536;1.478;2023-04-16T01:24:07;100251.16;;;9.13;71.52
76011;BME280;64701;43.536;1.478;2023-04-16T01:26:32;100256.13;;;9.08;72.50
76011;BME280;64701;43.536;1.478;2023-04-16T01:28:58;100252.47;;;9.01;72.98
76011;BME280;64701;43.536;1.478;2023-04-16T01:31:23;100251.50;;;9.02;72.36
76011;BME280;64701;43.536;1.478;2023-04-16T01:33:48;100250.50;;;9.03;72.68
76011;BME280;64701;43.536;1.478;2023-04-16T01:36:14;100244.06;;;8.97;73.35
76011;BME280;64701;43.536;1.478;2023-04-16T01:38:39;100244.72;;;8.91;73.69
76011;BME280;64701;43.536;1.478;2023-04-16T01:41:05;100245.56;;;8.92;73.52
76011;BME280;64701;43.536;1.478;2023-04-16T01:43:30;100253.78;;;8.89;73.86
76011;BME280;64701;43.536;1.478;2023-04-16T01:45:58;100252.66;;;8.91;73.33
76011;BME280;64701;43.536;1.478;2023-04-16T01:48:34;100248.50;;;8.89;73.58
76011;BME280;64701;43.536;1.478;2023-04-16T01:50:59;100253.28;;;8.85;74.03
76011;BME280;64701;43.536;1.478;2023-04-16T01:53:25;100250.47;;;8.79;74.86
76011;BME280;64701;43.536;1.478;2023-04-16T01:55:50;100257.72;;;8.77;74.44
76011;BME280;64701;43.536;1.478;2023-04-16T01:58:15;100259.53;;;8.76;74.55
76011;BME280;64701;43.536;1.478;2023-04-16T02:00:40;100261.00;;;8.71;75.00
76011;BME280;64701;43.536;1.478;2023-04-16T02:03:06;100266.94;;;8.65;75.39
76011;BME280;64701;43.536;1.478;2023-04-16T02:05:31;100271.06;;;8.67;74.97
76011;BME280;64701;43.536;1.478;2023-04-16T02:07:56;100266.44;;;8.61;75.32
76011;BME280;64701;43.536;1.478;2023-04-16T02:10:21;100272.53;;;8.62;75.20
76011;BME280;64701;43.536;1.478;2023-04-16T02:12:47;100270.22;;;8.58;75.83
76011;BME280;64701;43.536;1.478;2023-04-16T02:15:12;100273.19;;;8.55;76.03
76011;BME280;64701;43.536;1.478;2023-04-16T02:17:37;100273.34;;;8.54;76.06
76011;BME280;64701;43.536;1.478;2023-04-16T02:20:03;100268.56;;;8.49;76.76
76011;BME280;64701;43.536;1.478;2023-04-16T02:22:31;100266.41;;;8.45;77.23
76011;BME280;64701;43.536;1.478;2023-04-16T02:24:57;100269.19;;;8.43;77.65
76011;BME280;64701;43.536;1.478;2023-04-16T02:27:22;100266.53;;;8.43;77.56
76011;BME280;64701;43.536;1.478;2023-04-16T02:29:47;100267.53;;;8.42;77.50
76011;BME280;64701;43.536;1.478;2023-04-16T02:32:12;100268.50;;;8.41;77.57
76011;BME280;64701;43.536;1.478;2023-04-16T02:34:38;100278.09;;;8.42;77.69
76011;BME280;64701;43.536;1.478;2023-04-16T02:37:04;100271.16;;;8.41;77.91
76011;BME280;64701;43.536;1.478;2023-04-16T02:39:29;100278.72;;;8.36;78.49
76011;BME280;64701;43.536;1.478;2023-04-16T02:41:54;100270.13;;;8.34;78.65
76011;BME280;64701;43.536;1.478;2023-04-16T02:44:20;100276.56;;;8.32;79.03
76011;BME280;64701;43.536;1.478;2023-04-16T02:46:45;100273.91;;;8.32;78.89
76011;BME280;64701;43.536;1.478;2023-04-16T02:49:10;100273.09;;;8.31;78.98
76011;BME280;64701;43.536;1.478;2023-04-16T02:51:36;100262.66;;;8.30;79.23
76011;BME280;64701;43.536;1.478;2023-04-16T02:54:01;100265.47;;;8.28;79.34
76011;BME280;64701;43.536;1.478;2023-04-16T02:56:27;100269.09;;;8.27;79.35
76011;BME280;64701;43.536;1.478;2023-04-16T02:58:52;100272.19;;;8.23;80.07
76011;BME280;64701;43.536;1.478;2023-04-16T03:01:17;100273.19;;;8.22;80.10
76011;BME280;64701;43.536;1.478;2023-04-16T03:03:43;100286.38;;;8.22;80.41
76011;BME280;64701;43.536;1.478;2023-04-16T03:06:08;100283.91;;;8.20;80.17
76011;BME280;64701;43.536;1.478;2023-04-16T03:08:33;100283.38;;;8.16;80.51
76011;BME280;64701;43.536;1.478;2023-04-16T03:10:58;100273.97;;;8.14;80.99
76011;BME280;64701;43.536;1.478;2023-04-16T03:13:24;100277.44;;;8.14;80.99
76011;BME280;64701;43.536;1.478;2023-04-16T03:15:49;100273.28;;;8.12;81.12
76011;BME280;64701;43.536;1.478;2023-04-16T03:18:14;100265.38;;;8.12;81.60
76011;BME280;64701;43.536;1.478;2023-04-16T03:20:40;100260.09;;;8.12;81.18
76011;BME280;64701;43.536;1.478;2023-04-16T03:23:05;100260.72;;;8.06;82.08
76011;BME280;64701;43.536;1.478;2023-04-16T03:25:30;100271.00;;;8.09;81.74
76011;BME280;64701;43.536;1.478;2023-04-16T03:27:56;100268.34;;;8.09;82.14
76011;BME280;64701;43.536;1.478;2023-04-16T03:30:21;100265.72;;;8.09;81.77
76011;BME280;64701;43.536;1.478;2023-04-16T03:32:46;100275.94;;;8.12;82.06
76011;BME280;64701;43.536;1.478;2023-04-16T03:35:11;100274.47;;;8.09;81.94
76011;BME280;64701;43.536;1.478;2023-04-16T03:37:37;100272.94;;;8.07;81.99
76011;BME280;64701;43.536;1.478;2023-04-16T03:40:02;100262.53;;;8.05;82.25
76011;BME280;64701;43.536;1.478;2023-04-16T03:42:29;100256.28;;;8.06;82.30
76011;BME280;64701;43.536;1.478;2023-04-16T03:44:55;100261.91;;;8.03;82.18
76011;BME280;64701;43.536;1.478;2023-04-16T03:47:21;100259.06;;;8.05;82.34
76011;BME280;64701;43.536;1.478;2023-04-16T03:49:48;100261.72;;;8.05;82.28
76011;BME280;64701;43.536;1.478;2023-04-16T03:52:13;100260.09;;;8.04;82.29
76011;BME280;64701;43.536;1.478;2023-04-16T03:54:39;100269.63;;;8.05;82.00
76011;BME280;64701;43.536;1.478;2023-04-16T03:57:04;100267.63;;;7.99;82.51
76011;BME280;64701;43.536;1.478;2023-04-16T03:59:30;100267.47;;;8.00;82.22
76011;BME280;64701;43.536;1.478;2023-04-16T04:01:55;100267.47;;;8.00;82.52
76011;BME280;64701;43.536;1.478;2023-04-16T04:04:20;100275.38;;;8.00;82.03
76011;BME280;64701;43.536;1.478;2023-04-16T04:06:45;100270.09;;;7.92;83.03
76011;BME280;64701;43.536;1.478;2023-04-16T04:09:11;100274.00;;;7.88;83.44
76011;BME280;64701;43.536;1.478;2023-04-16T04:11:36;100268.50;;;7.82;83.45
76011;BME280;64701;43.536;1.478;2023-04-16T04:14:02;100260.59;;;7.82;83.43
76011;BME280;64701;43.536;1.478;2023-04-16T04:16:29;100269.34;;;7.82;83.45
76011;BME280;64701;43.536;1.478;2023-04-16T04:18:55;100264.06;;;7.82;83.41
76011;BME280;64701;43.536;1.478;2023-04-16T04:21:20;100268.50;;;7.82;83.22
76011;BME280;64701;43.536;1.478;2023-04-16T04:23:45;100259.94;;;7.79;83.76
76011;BME280;64701;43.536;1.478;2023-04-16T04:26:11;100260.25;;;7.76;83.82
76011;BME280;64701;43.536;1.478;2023-04-16T04:28:36;100265.50;;;7.76;83.96
76011;BME280;64701;43.536;1.478;2023-04-16T04:31:01;100266.50;;;7.75;83.75
76011;BME280;64701;43.536;1.478;2023-04-16T04:33:27;100270.78;;;7.76;83.56
76011;BME280;64701;43.536;1.478;2023-04-16T04:35:52;100269.97;;;7.76;83.45
76011;BME280;64701;43.536;1.478;2023-04-16T04:38:18;100269.97;;;7.76;83.43
76011;BME280;64701;43.536;1.478;2023-04-16T04:40:45;100272.78;;;7.74;83.43
76011;BME280;64701;43.536;1.478;2023-04-16T04:43:11;100272.78;;;7.74;83.45
76011;BME280;64701;43.536;1.478;2023-04-16T04:45:36;100270.44;;;7.71;83.84
76011;BME280;64701;43.536;1.478;2023-04-16T04:48:01;100266.28;;;7.69;84.22
76011;BME280;64701;43.536;1.478;2023-04-16T04:50:27;100268.91;;;7.69;84.01
76011;BME280;64701;43.536;1.478;2023-04-16T04:52:52;100278.81;;;7.67;84.05
76011;BME280;64701;43.536;1.478;2023-04-16T04:55:17;100273.38;;;7.68;84.24
76011;BME280;64701;43.536;1.478;2023-04-16T04:57:42;100273.69;;;7.65;84.06
76011;BME280;64701;43.536;1.478;2023-04-16T05:00:08;100277.00;;;7.67;83.81
76011;BME280;64701;43.536;1.478;2023-04-16T05:02:33;100277.97;;;7.66;83.52
76011;BME280;64701;43.536;1.478;2023-04-16T05:04:59;100277.28;;;7.64;83.99
76011;BME280;64701;43.536;1.478;2023-04-16T05:07:24;100269.72;;;7.61;84.00
76011;BME280;64701;43.536;1.478;2023-04-16T05:09:49;100271.38;;;7.62;84.14
76011;BME280;64701;43.536;1.478;2023-04-16T05:12:15;100264.44;;;7.61;84.18
76011;BME280;64701;43.536;1.478;2023-04-16T05:14:40;100267.91;;;7.62;84.06
76011;BME280;64701;43.536;1.478;2023-04-16T05:17:06;100272.34;;;7.61;84.27
76011;BME280;64701;43.536;1.478;2023-04-16T05:19:32;100264.59;;;7.60;84.15
76011;BME280;64701;43.536;1.478;2023-04-16T05:21:57;100261.13;;;7.59;84.40
76011;BME280;64701;43.536;1.478;2023-04-16T05:24:22;100266.72;;;7.56;84.69
76011;BME280;64701;43.536;1.478;2023-04-16T05:26:47;100271.16;;;7.56;85.23
76011;BME280;64701;43.536;1.478;2023-04-16T05:29:13;100266.88;;;7.55;85.40
76011;BME280;64701;43.536;1.478;2023-04-16T05:31:38;100276.25;;;7.57;85.19
76011;BME280;64701;43.536;1.478;2023-04-16T05:34:03;100268.66;;;7.54;85.73
76011;BME280;64701;43.536;1.478;2023-04-16T05:36:29;100272.63;;;7.58;85.03
76011;BME280;64701;43.536;1.478;2023-04-16T05:38:54;100277.91;;;7.58;85.71
76011;BME280;64701;43.536;1.478;2023-04-16T05:41:19;100284.84;;;7.59;85.43
76011;BME280;64701;43.536;1.478;2023-04-16T05:43:45;100283.53;;;7.63;85.59
76011;BME280;64701;43.536;1.478;2023-04-16T05:46:10;100281.44;;;7.67;85.70
76011;BME280;64701;43.536;1.478;2023-04-16T05:48:35;100284.59;;;7.70;84.88
76011;BME280;64701;43.536;1.478;2023-04-16T05:51:00;100285.41;;;7.71;85.21
76011;BME280;64701;43.536;1.478;2023-04-16T05:53:26;100291.06;;;7.76;84.84
76011;BME280;64701;43.536;1.478;2023-04-16T05:55:52;100287.44;;;7.77;84.76
76011;BME280;64701;43.536;1.478;2023-04-16T05:58:17;100290.56;;;7.80;84.97
76011;BME280;64701;43.536;1.478;2023-04-16T06:00:42;100282.66;;;7.80;85.23
76011;BME280;64701;43.536;1.478;2023-04-16T06:03:07;100278.22;;;7.81;85.08
76011;BME280;64701;43.536;1.478;2023-04-16T06:05:33;100277.94;;;7.84;85.16
76011;BME280;64701;43.536;1.478;2023-04-16T06:07:58;100282.03;;;7.87;85.51
76011;BME280;64701;43.536;1.478;2023-04-16T06:10:23;100286.19;;;7.89;84.85
76011;BME280;64701;43.536;1.478;2023-04-16T06:12:48;100291.69;;;7.96;84.94
76011;BME280;64701;43.536;1.478;2023-04-16T06:15:14;100281.81;;;7.98;85.07
76011;BME280;64701;43.536;1.478;2023-04-16T06:17:39;100290.22;;;8.01;85.38
76011;BME280;64701;43.536;1.478;2023-04-16T06:20:05;100290.72;;;8.05;85.08
76011;BME280;64701;43.536;1.478;2023-04-16T06:22:30;100293.75;;;8.10;85.02
76011;BME280;64701;43.536;1.478;2023-04-16T06:24:56;100299.38;;;8.15;84.90
76011;BME280;64701;43.536;1.478;2023-04-16T06:27:21;100303.03;;;8.22;84.71
76011;BME280;64701;43.536;1.478;2023-04-16T06:29:46;100306.88;;;8.28;84.56
76011;BME280;64701;43.536;1.478;2023-04-16T06:32:11;100316.63;;;8.35;84.16
76011;BME280;64701;43.536;1.478;2023-04-16T06:34:37;100322.25;;;8.40;83.96
76011;BME280;64701;43.536;1.478;2023-04-16T06:37:02;100317.66;;;8.42;84.20
76011;BME280;64701;43.536;1.478;2023-04-16T06:39:28;100319.66;;;8.48;83.80
76011;BME280;64701;43.536;1.478;2023-04-16T06:41:53;100315.41;;;8.55;83.52
76011;BME280;64701;43.536;1.478;2023-04-16T06:44:18;100315.91;;;8.59;83.52
76011;BME280;64701;43.536;1.478;2023-04-16T06:46:44;100313.81;;;8.71;82.90
76011;BME280;64701;43.536;1.478;2023-04-16T06:49:09;100316.81;;;8.76;82.72
76011;BME280;64701;43.536;1.478;2023-04-16T06:51:34;100314.19;;;8.84;81.88
76011;BME280;64701;43.536;1.478;2023-04-16T06:53:59;100305.13;;;8.94;81.73
76011;BME280;64701;43.536;1.478;2023-04-16T06:56:25;100308.13;;;8.99;81.75
76011;BME280;64701;43.536;1.478;2023-04-16T06:58:50;100303.00;;;9.06;82.24
76011;BME280;64701;43.536;1.478;2023-04-16T07:01:16;100306.66;;;9.13;81.53
76011;BME280;64701;43.536;1.478;2023-04-16T07:03:41;100300.72;;;9.19;81.68
76011;BME280;64701;43.536;1.478;2023-04-16T07:06:07;100297.75;;;9.22;81.62
76011;BME280;64701;43.536;1.478;2023-04-16T07:08:32;100302.41;;;9.28;81.56
76011;BME280;64701;43.536;1.478;2023-04-16T07:10:57;100303.72;;;9.32;81.42
76011;BME280;64701;43.536;1.478;2023-04-16T07:13:22;100295.13;;;9.38;81.33
76011;BME280;64701;43.536;1.478;2023-04-16T07:15:48;100295.78;;;9.49;81.26
76011;BME280;64701;43.536;1.478;2023-04-16T07:18:13;100292.97;;;9.58;80.85
76011;BME280;64701;43.536;1.478;2023-04-16T07:20:38;100293.47;;;9.62;80.28
76011;BME280;64701;43.536;1.478;2023-04-16T07:23:04;100294.78;;;9.66;80.51
76011;BME280;64701;43.536;1.478;2023-04-16T07:25:29;100291.97;;;9.67;80.46
76011;BME280;64701;43.536;1.478;2023-04-16T07:27:54;100299.06;;;9.75;79.96
76011;BME280;64701;43.536;1.478;2023-04-16T07:30:20;100293.44;;;9.86;79.96
76011;BME280;64701;43.536;1.478;2023-04-16T07:32:45;100289.44;;;9.98;79.82
76011;BME280;64701;43.536;1.478;2023-04-16T07:35:10;100291.56;;;10.03;79.15
76011;BME280;64701;43.536;1.478;2023-04-16T07:37:35;100288.56;;;10.14;78.89
76011;BME280;64701;43.536;1.478;2023-04-16T07:40:01;100283.63;;;10.19;78.46
76011;BME280;64701;43.536;1.478;2023-04-16T07:42:26;100285.41;;;10.35;77.86
76011;BME280;64701;43.536;1.478;2023-04-16T07:44:52;100279.25;;;10.42;77.12
76011;BME280;64701;43.536;1.478;2023-04-16T07:47:17;100279.03;;;10.52;77.05
76011;BME280;64701;43.536;1.478;2023-04-16T07:49:42;100273.75;;;10.52;75.35
76011;BME280;64701;43.536;1.478;2023-04-16T07:52:08;100271.56;;;10.55;75.31
76011;BME280;64701;43.536;1.478;2023-04-16T07:54:33;100280.16;;;10.57;74.71
76011;BME280;64701;43.536;1.478;2023-04-16T07:56:58;100280.97;;;10.66;75.25
76011;BME280;64701;43.536;1.478;2023-04-16T07:59:23;100275.97;;;10.71;74.79
76011;BME280;64701;43.536;1.478;2023-04-16T08:01:51;100282.22;;;10.78;75.21
76011;BME280;64701;43.536;1.478;2023-04-16T08:04:17;100278.69;;;10.86;74.17
76011;BME280;64701;43.536;1.478;2023-04-16T08:06:48;100275.81;;;10.95;74.50
76011;BME280;64701;43.536;1.478;2023-04-16T08:09:13;100274.91;;;11.03;73.85
76011;BME280;64701;43.536;1.478;2023-04-16T08:11:38;100276.00;;;11.17;74.14
76011;BME280;64701;43.536;1.478;2023-04-16T08:14:04;100270.75;;;11.31;74.07
76011;BME280;64701;43.536;1.478;2023-04-16T08:16:29;100282.22;;;11.46;73.25
76011;BME280;64701;43.536;1.478;2023-04-16T08:18:54;100279.50;;;11.55;72.01
76011;BME280;64701;43.536;1.478;2023-04-16T08:21:19;100273.00;;;11.57;71.06
76011;BME280;64701;43.536;1.478;2023-04-16T08:23:45;100272.50;;;11.62;70.70
76011;BME280;64701;43.536;1.478;2023-04-16T08:26:11;100273.28;;;11.62;69.46
76011;BME280;64701;43.536;1.478;2023-04-16T08:28:36;100278.06;;;11.67;69.88
76011;BME280;64701;43.536;1.478;2023-04-16T08:31:01;100275.22;;;11.68;68.93
76011;BME280;64701;43.536;1.478;2023-04-16T08:33:26;100279.19;;;11.72;68.54
76011;BME280;64701;43.536;1.478;2023-04-16T08:35:51;100274.13;;;11.85;69.13
76011;BME280;64701;43.536;1.478;2023-04-16T08:38:17;100276.66;;;11.94;68.84
76011;BME280;64701;43.536;1.478;2023-04-16T08:40:42;100273.28;;;12.00;68.95
76011;BME280;64701;43.536;1.478;2023-04-16T08:43:09;100271.28;;;12.16;69.16
76011;BME280;64701;43.536;1.478;2023-04-16T08:45:37;100284.72;;;12.30;68.66
76011;BME280;64701;43.536;1.478;2023-04-16T08:48:04;100286.91;;;12.41;67.37
76011;BME280;64701;43.536;1.478;2023-04-16T08:50:30;100296.53;;;12.56;68.25
76011;BME280;64701;43.536;1.478;2023-04-16T08:53:06;100287.53;;;12.57;66.05
76011;BME280;64701;43.536;1.478;2023-04-16T08:58:00;100293.91;;;12.78;66.23
76011;BME280;64701;43.536;1.478;2023-04-16T09:00:28;100290.84;;;12.95;66.26
76011;BME280;64701;43.536;1.478;2023-04-16T09:02:55;100281.94;;;13.03;65.65
76011;BME280;64701;43.536;1.478;2023-04-16T09:05:20;100285.38;;;13.18;64.39
76011;BME280;64701;43.536;1.478;2023-04-16T09:07:49;100284.50;;;13.32;63.91
76011;BME280;64701;43.536;1.478;2023-04-16T09:10:16;100287.06;;;13.40;63.32
76011;BME280;64701;43.536;1.478;2023-04-16T09:12:41;100284.09;;;13.57;63.65
76011;BME280;64701;43.536;1.478;2023-04-16T09:15:08;100275.66;;;13.74;63.40
76011;BME280;64701;43.536;1.478;2023-04-16T09:17:33;100286.34;;;13.81;62.95
76011;BME280;64701;43.536;1.478;2023-04-16T09:19:59;100284.88;;;13.78;61.48
76011;BME280;64701;43.536;1.478;2023-04-16T09:22:25;100278.03;;;13.63;62.71
76011;BME280;64701;43.536;1.478;2023-04-16T09:24:50;100280.78;;;13.76;62.48
76011;BME280;64701;43.536;1.478;2023-04-16T09:27:15;100283.06;;;13.79;62.04
76011;BME280;64701;43.536;1.478;2023-04-16T09:29:41;100286.53;;;13.79;61.46
76011;BME280;64701;43.536;1.478;2023-04-16T09:32:07;100287.91;;;13.69;61.12
76011;BME280;64701;43.536;1.478;2023-04-16T09:34:33;100285.06;;;13.70;60.85
76011;BME280;64701;43.536;1.478;2023-04-16T09:37:14;100288.00;;;13.82;60.45
76011;BME280;64701;43.536;1.478;2023-04-16T09:39:42;100286.78;;;13.84;60.23
76011;BME280;64701;43.536;1.478;2023-04-16T09:42:08;100278.59;;;13.86;60.95
76011;BME280;64701;43.536;1.478;2023-04-16T09:44:34;100282.28;;;13.85;60.14
76011;BME280;64701;43.536;1.478;2023-04-16T09:47:04;100283.94;;;13.86;60.94
76011;BME280;64701;43.536;1.478;2023-04-16T09:49:30;100273.00;;;13.74;59.98
76011;BME280;64701;43.536;1.478;2023-04-16T09:51:57;100269.09;;;13.70;60.17
76011;BME280;64701;43.536;1.478;2023-04-16T09:54:24;100279.31;;;13.73;59.27
76011;BME280;64701;43.536;1.478;2023-04-16T09:56:50;100272.59;;;13.77;59.72
76011;BME280;64701;43.536;1.478;2023-04-16T09:59:16;100277.59;;;13.87;60.01
76011;BME280;64701;43.536;1.478;2023-04-16T10:01:41;100276.03;;;13.99;59.42
76011;BME280;64701;43.536;1.478;2023-04-16T10:04:06;100268.41;;;13.96;58.52
76011;BME280;64701;43.536;1.478;2023-04-16T10:06:32;100269.38;;;14.16;59.09
76011;BME280;64701;43.536;1.478;2023-04-16T10:08:57;100262.00;;;14.18;58.53
76011;BME280;64701;43.536;1.478;2023-04-16T10:11:22;100275.94;;;14.20;58.36
76011;BME280;64701;43.536;1.478;2023-04-16T10:13:48;100272.66;;;14.18;58.32
76011;BME280;64701;43.536;1.478;2023-04-16T10:16:13;100271.97;;;14.38;58.86
76011;BME280;64701;43.536;1.478;2023-04-16T10:18:42;100264.03;;;14.51;57.38
76011;BME280;64701;43.536;1.478;2023-04-16T10:21:08;100269.00;;;14.67;57.45
76011;BME280;64701;43.536;1.478;2023-04-16T10:23:40;100271.50;;;14.75;58.20
76011;BME280;64701;43.536;1.478;2023-04-16T10:26:05;100270.75;;;14.94;57.39
76011;BME280;64701;43.536;1.478;2023-04-16T10:28:31;100264.81;;;15.05;57.21
76011;BME280;64701;43.536;1.478;2023-04-16T10:30:59;100266.88;;;15.17;56.63
76011;BME280;64701;43.536;1.478;2023-04-16T10:33:30;100268.13;;;15.34;56.53
76011;BME280;64701;43.536;1.478;2023-04-16T10:36:29;100267.94;;;15.48;56.46
76011;BME280;64701;43.536;1.478;2023-04-16T10:38:51;100268.97;;;15.47;54.55
76011;BME280;64701;43.536;1.478;2023-04-16T10:41:18;100255.03;;;15.59;54.44
76011;BME280;64701;43.536;1.478;2023-04-16T10:43:47;100256.06;;;15.71;54.10
76011;BME280;64701;43.536;1.478;2023-04-16T10:48:41;100251.94;;;15.81;53.89
76011;BME280;64701;43.536;1.478;2023-04-16T10:51:06;100254.19;;;15.84;52.02
76011;BME280;64701;43.536;1.478;2023-04-16T10:53:32;100248.81;;;15.98;50.66
76011;BME280;64701;43.536;1.478;2023-04-16T10:58:29;100251.72;;;16.03;52.47
76011;BME280;64701;43.536;1.478;2023-04-16T11:00:58;100242.19;;;16.20;53.08
76011;BME280;64701;43.536;1.478;2023-04-16T11:03:23;100243.22;;;16.19;52.32
76011;BME280;64701;43.536;1.478;2023-04-16T11:05:48;100240.56;;;16.19;51.24
76011;BME280;64701;43.536;1.478;2023-04-16T11:08:14;100236.88;;;16.07;49.50
76011;BME280;64701;43.536;1.478;2023-04-16T11:10:40;100228.59;;;16.28;51.83
76011;BME280;64701;43.536;1.478;2023-04-16T11:13:05;100234.31;;;16.38;48.62
76011;BME280;64701;43.536;1.478;2023-04-16T11:15:31;100216.31;;;16.20;48.21
76011;BME280;64701;43.536;1.478;2023-04-16T11:17:57;100217.63;;;16.49;51.78
76011;BME280;64701;43.536;1.478;2023-04-16T11:20:26;100206.88;;;16.62;51.46
76011;BME280;64701;43.536;1.478;2023-04-16T11:22:53;100216.31;;;16.65;48.12
76011;BME280;64701;43.536;1.478;2023-04-16T11:25:28;100213.88;;;16.95;50.17
76011;BME280;64701;43.536;1.478;2023-04-16T11:27:54;100209.22;;;17.15;51.09
76011;BME280;64701;43.536;1.478;2023-04-16T11:30:31;100188.91;;;17.32;47.79
76011;BME280;64701;43.536;1.478;2023-04-16T11:32:57;100196.53;;;17.53;48.77
76011;BME280;64701;43.536;1.478;2023-04-16T11:35:23;100202.22;;;17.64;48.08
76011;BME280;64701;43.536;1.478;2023-04-16T11:37:48;100196.22;;;17.43;47.40
76011;BME280;64701;43.536;1.478;2023-04-16T11:40:13;100185.81;;;17.53;46.44
76011;BME280;64701;43.536;1.478;2023-04-16T11:42:39;100184.22;;;17.46;46.65
76011;BME280;64701;43.536;1.478;2023-04-16T11:45:06;100195.56;;;17.73;49.25
76011;BME280;64701;43.536;1.478;2023-04-16T11:47:31;100183.75;;;17.99;46.08
76011;BME280;64701;43.536;1.478;2023-04-16T11:50:19;100176.97;;;18.14;46.49
76011;BME280;64701;43.536;1.478;2023-04-16T11:52:45;100187.81;;;18.01;46.05
76011;BME280;64701;43.536;1.478;2023-04-16T11:55:11;100187.06;;;17.94;46.46
76011;BME280;64701;43.536;1.478;2023-04-16T11:57:36;100186.03;;;18.13;49.08
76011;BME280;64701;43.536;1.478;2023-04-16T12:00:02;100180.34;;;18.40;45.78
76011;BME280;64701;43.536;1.478;2023-04-16T12:05:00;100168.91;;;18.92;43.01
76011;BME280;64701;43.536;1.478;2023-04-16T12:07:25;100176.03;;;18.98;43.54
76011;BME280;64701;43.536;1.478;2023-04-16T12:10:02;100171.34;;;19.47;45.91
76011;BME280;64701;43.536;1.478;2023-04-16T12:12:29;100170.63;;;19.63;43.97
76011;BME280;64701;43.536;1.478;2023-04-16T12:14:54;100159.25;;;19.38;43.05
76011;BME280;64701;43.536;1.478;2023-04-16T12:17:21;100160.31;;;19.37;43.91
76011;BME280;64701;43.536;1.478;2023-04-16T12:20:08;100162.16;;;19.25;45.80
76011;BME280;64701;43.536;1.478;2023-04-16T12:22:34;100165.09;;;19.11;44.76
76011;BME280;64701;43.536;1.478;2023-04-16T12:25:00;100167.72;;;19.53;44.31
76011;BME280;64701;43.536;1.478;2023-04-16T12:27:39;100160.72;;;20.04;41.79
76011;BME280;64701;43.536;1.478;2023-04-16T12:30:05;100144.97;;;20.64;42.32
76011;BME280;64701;43.536;1.478;2023-04-16T12:32:31;100142.81;;;20.94;42.30
76011;BME280;64701;43.536;1.478;2023-04-16T12:34:56;100149.84;;;20.50;39.85
76011;BME280;64701;43.536;1.478;2023-04-16T12:37:22;100152.78;;;20.49;39.56
76011;BME280;64701;43.536;1.478;2023-04-16T12:39:47;100136.88;;;21.09;40.92
76011;BME280;64701;43.536;1.478;2023-04-16T12:42:12;100127.38;;;21.56;39.02
76011;BME280;64701;43.536;1.478;2023-04-16T12:44:38;100123.56;;;22.39;40.87
76011;BME280;64701;43.536;1.478;2023-04-16T12:47:04;100119.22;;;22.92;38.26
76011;BME280;64701;43.536;1.478;2023-04-16T12:49:29;100130.72;;;23.14;36.63
76011;BME280;64701;43.536;1.478;2023-04-16T12:51:54;100130.50;;;23.53;36.90
76011;BME280;64701;43.536;1.478;2023-04-16T12:54:20;100128.47;;;23.43;35.91
76011;BME280;64701;43.536;1.478;2023-04-16T12:56:45;100129.66;;;24.15;35.18
76011;BME280;64701;43.536;1.478;2023-04-16T12:59:11;100121.97;;;24.79;34.10